Time;durP1;ratioP1;P1;durP2;ratioP2;P2;SDS_P1;SDS_P2;PMS_P1;PMS_P2;Temp;Humidity;BMP_temperature;BMP_pressure;BME280_temperature;BME280_humidity;BME280_pressure;Samples;Min_cycle;Max_cycle;Signal;HPM_P1;HPM_P2
2023/08/22 00:01:13;;;;;;;6.78;3.38;;;;;;;26.46;47.86;102213.00;5032712;28;20124;-34
2023/08/22 00:03:40;;;;;;;5.82;3.33;;;;;;;26.45;47.69;102205.84;5033145;28;20132;-33
2023/08/22 00:06:07;;;;;;;5.78;3.28;;;;;;;26.46;48.03;102212.19;5030266;28;20053;-34
2023/08/22 00:08:33;;;;;;;5.55;3.33;;;;;;;26.44;47.79;102208.72;5031975;28;20441;-34
2023/08/22 00:11:00;;;;;;;4.95;3.22;;;;;;;26.44;48.03;102206.00;5030850;28;20407;-34
2023/08/22 00:13:27;;;;;;;7.03;3.72;;;;;;;26.43;47.75;102207.88;5027980;28;20087;-33
2023/08/22 00:16:00;;;;;;;6.03;3.00;;;;;;;26.42;48.13;102213.50;5029075;28;20061;-34
2023/08/22 00:18:27;;;;;;;5.75;3.53;;;;;;;26.41;48.05;102207.19;5030717;28;20045;-34
2023/08/22 00:20:54;;;;;;;4.78;3.40;;;;;;;26.40;48.01;102207.38;5027580;28;20053;-34
2023/08/22 00:23:20;;;;;;;5.80;3.65;;;;;;;26.40;47.92;102201.94;5029525;28;20053;-33
2023/08/22 00:25:47;;;;;;;5.47;3.83;;;;;;;26.39;47.91;102202.97;5030800;28;20050;-34
2023/08/22 00:28:14;;;;;;;5.82;3.40;;;;;;;26.40;47.95;102191.09;5029726;28;20120;-33
2023/08/22 00:30:41;;;;;;;5.75;3.58;;;;;;;26.38;48.14;102194.00;5027859;28;20045;-34
2023/08/22 00:33:07;;;;;;;5.80;3.35;;;;;;;26.37;48.08;102196.88;5028238;28;20399;-34
2023/08/22 00:35:34;;;;;;;4.20;2.72;;;;;;;26.37;47.86;102195.00;5027063;28;20068;-34
2023/08/22 00:38:01;;;;;;;6.70;3.20;;;;;;;26.37;48.14;102188.72;5045768;28;20037;-34
2023/08/22 00:40:27;;;;;;;4.65;3.03;;;;;;;26.36;47.91;102185.16;5030255;28;20045;-33
2023/08/22 00:42:54;;;;;;;5.80;3.30;;;;;;;26.33;48.02;102186.38;5027521;28;20053;-33
2023/08/22 00:45:21;;;;;;;4.60;2.78;;;;;;;26.32;48.05;102181.09;5029536;28;20045;-34
2023/08/22 00:47:47;;;;;;;4.15;2.70;;;;;;;26.32;48.26;102178.38;5028574;28;20385;-33
2023/08/22 00:50:14;;;;;;;4.95;2.70;;;;;;;26.31;48.26;102165.81;5029669;28;20069;-33
2023/08/22 00:52:41;;;;;;;4.47;2.88;;;;;;;26.30;48.17;102175.00;5029302;28;20151;-34
2023/08/22 00:55:08;;;;;;;4.47;2.72;;;;;;;26.29;48.41;102162.41;5028454;28;20055;-34
2023/08/22 00:57:35;;;;;;;5.53;2.70;;;;;;;26.28;48.30;102171.59;5029058;28;20048;-34
2023/08/22 01:00:06;;;;;;;4.03;2.58;;;;;;;26.27;48.38;102172.63;5030188;28;20089;-33
2023/08/22 01:02:33;;;;;;;4.38;2.63;;;;;;;26.26;48.36;102169.06;5027403;28;20354;-33
2023/08/22 01:05:00;;;;;;;4.88;2.60;;;;;;;26.25;48.27;102161.06;5031059;28;20121;-34
2023/08/22 01:07:42;;;;;;;3.92;2.63;;;;;;;26.22;48.47;102159.56;5024871;28;20123;-34
2023/08/22 01:10:20;;;;;;;4.75;2.55;;;;;;;26.22;48.66;102147.84;5026878;28;20057;-33
2023/08/22 01:13:00;;;;;;;5.43;2.50;;;;;;;26.20;48.56;102136.28;5027764;28;20053;-34
2023/08/22 01:15:28;;;;;;;6.07;2.53;;;;;;;26.20;48.44;102128.97;5029065;28;20046;-33
2023/08/22 01:17:57;;;;;;;4.25;2.70;;;;;;;26.19;48.30;102134.59;5029573;28;20124;-33
2023/08/22 01:20:30;;;;;;;4.82;2.60;;;;;;;26.19;48.56;102140.03;5031376;28;20056;-33
2023/08/22 01:22:58;;;;;;;3.08;2.15;;;;;;;26.18;48.46;102143.78;5030505;28;20447;-33
2023/08/22 01:25:27;;;;;;;4.28;2.58;;;;;;;26.16;48.56;102149.38;5034527;28;20400;-33
2023/08/22 01:28:17;;;;;;;3.80;2.45;;;;;;;26.15;48.83;102146.84;5031346;28;20516;-33
2023/08/22 01:30:56;;;;;;;3.25;2.33;;;;;;;26.13;48.70;102157.91;5033794;28;20049;-33
2023/08/22 01:33:27;;;;;;;3.08;2.13;;;;;;;26.13;48.73;102151.59;5030463;28;20057;-33
2023/08/22 01:35:55;;;;;;;4.57;2.35;;;;;;;26.13;48.83;102141.59;5031603;28;20566;-33
2023/08/22 01:38:25;;;;;;;5.05;2.58;;;;;;;26.11;48.74;102138.19;5031636;28;20056;-34
2023/08/22 01:40:53;;;;;;;4.22;2.17;;;;;;;26.10;48.84;102141.94;5032963;28;20056;-34
2023/08/22 01:43:21;;;;;;;6.40;2.25;;;;;;;26.09;48.85;102148.38;5033204;28;20042;-33
2023/08/22 01:45:48;;;;;;;3.25;1.98;;;;;;;26.08;48.80;102143.97;5032896;28;20071;-33
2023/08/22 01:48:14;;;;;;;5.13;2.70;;;;;;;26.06;48.72;102140.59;5032736;28;20056;-33
2023/08/22 01:50:41;;;;;;;3.92;2.30;;;;;;;26.05;48.95;102142.47;5034365;28;20167;-33
2023/08/22 01:53:08;;;;;;;4.18;2.45;;;;;;;26.05;48.61;102147.03;5034728;28;20099;-34
2023/08/22 01:55:34;;;;;;;3.03;1.98;;;;;;;26.05;48.77;102147.03;5051588;28;20086;-33
2023/08/22 01:58:03;;;;;;;3.40;2.35;;;;;;;26.02;49.34;102142.81;5033591;28;20088;-34
2023/08/22 02:00:30;;;;;;;4.25;2.05;;;;;;;26.02;48.99;102148.25;5034385;28;20080;-33
2023/08/22 02:02:56;;;;;;;3.30;2.42;;;;;;;26.01;48.98;102149.28;5035136;28;20049;-33
2023/08/22 02:05:24;;;;;;;4.18;2.40;;;;;;;26.00;48.88;102147.56;5032979;28;20140;-34
2023/08/22 02:07:51;;;;;;;3.95;2.00;;;;;;;26.00;48.78;102141.28;5033181;28;20444;-33
2023/08/22 02:10:17;;;;;;;4.22;2.10;;;;;;;25.99;48.92;102151.31;5034939;28;20488;-33
2023/08/22 02:12:44;;;;;;;3.85;2.38;;;;;;;25.98;48.81;102152.34;5031718;28;20509;-34
2023/08/22 02:15:10;;;;;;;4.00;2.00;;;;;;;25.98;49.12;102144.19;5033440;28;20073;-33
2023/08/22 02:17:38;;;;;;;3.13;2.10;;;;;;;25.97;48.97;102147.94;5029823;28;20056;-33
2023/08/22 02:20:07;;;;;;;3.38;2.25;;;;;;;25.96;49.05;102145.38;5033194;28;20401;-33
2023/08/22 02:22:40;;;;;;;3.60;2.15;;;;;;;25.96;49.00;102145.38;5030436;28;20433;-33
2023/08/22 02:25:08;;;;;;;3.10;2.03;;;;;;;25.96;48.95;102139.94;5030080;28;20154;-33
2023/08/22 02:27:36;;;;;;;6.85;2.55;;;;;;;25.95;49.06;102143.69;5031766;28;20073;-33
2023/08/22 02:30:07;;;;;;;3.90;2.10;;;;;;;25.94;49.06;102148.28;5031915;28;20050;-33
2023/08/22 02:32:34;;;;;;;3.47;2.00;;;;;;;25.93;49.09;102140.28;5029085;28;20041;-34
2023/08/22 02:35:02;;;;;;;4.20;2.10;;;;;;;25.92;48.96;102144.88;5031317;28;20057;-33
2023/08/22 02:37:28;;;;;;;2.60;1.95;;;;;;;25.91;48.97;102143.19;5028891;28;20103;-34
2023/08/22 02:39:55;;;;;;;2.67;1.65;;;;;;;25.92;48.82;102144.88;5029344;28;20099;-34
2023/08/22 02:42:22;;;;;;;4.20;2.13;;;;;;;25.91;49.14;102148.63;5030943;28;20507;-33
2023/08/22 02:44:49;;;;;;;4.97;2.38;;;;;;;25.89;49.10;102131.66;5030843;28;20072;-34
2023/08/22 02:47:15;;;;;;;3.42;2.50;;;;;;;25.88;49.10;102127.25;5029598;28;20088;-33
2023/08/22 02:49:42;;;;;;;5.53;2.17;;;;;;;25.87;49.10;102128.25;5032749;28;20083;-34
2023/08/22 02:52:08;;;;;;;2.95;2.08;;;;;;;25.87;49.01;102117.41;5030071;28;20060;-33
2023/08/22 02:54:35;;;;;;;3.03;1.88;;;;;;;25.84;49.07;102124.03;5030565;28;20188;-33
2023/08/22 02:57:02;;;;;;;3.67;2.20;;;;;;;25.84;49.41;102124.03;5029340;28;20072;-33
2023/08/22 02:59:29;;;;;;;4.90;1.85;;;;;;;25.83;49.26;102118.78;5029243;28;20045;-34
2023/08/22 03:01:55;;;;;;;3.67;1.90;;;;;;;25.82;49.12;102122.53;5029701;28;20057;-33
2023/08/22 03:04:22;;;;;;;1.98;1.50;;;;;;;25.82;49.27;102119.81;5031436;28;20093;-34
2023/08/22 03:06:49;;;;;;;2.25;1.58;;;;;;;25.81;49.29;102120.84;5029120;28;20037;-33
2023/08/22 03:09:16;;;;;;;3.45;2.13;;;;;;;25.80;49.24;102119.13;5031013;28;20095;-33
2023/08/22 03:11:42;;;;;;;3.28;1.70;;;;;;;25.80;49.22;102121.84;5032664;28;20056;-34
2023/08/22 03:14:09;;;;;;;3.88;1.85;;;;;;;25.78;49.25;102116.59;5029309;28;20108;-34
2023/08/22 03:16:35;;;;;;;4.30;1.73;;;;;;;25.78;49.41;102116.59;5031697;28;20129;-34
2023/08/22 03:19:02;;;;;;;2.50;1.60;;;;;;;25.77;49.33;102119.44;5030582;28;20132;-34
2023/08/22 03:21:29;;;;;;;3.03;1.80;;;;;;;25.76;49.29;102107.72;5028015;28;20495;-34
2023/08/22 03:23:55;;;;;;;2.33;1.60;;;;;;;25.75;49.02;102108.75;5030541;28;20041;-34
2023/08/22 03:26:22;;;;;;;2.97;1.95;;;;;;;25.74;49.19;102109.78;5031972;28;20053;-34
2023/08/22 03:28:48;;;;;;;2.13;1.70;;;;;;;25.74;49.34;102108.94;5029978;28;20045;-34
2023/08/22 03:31:15;;;;;;;3.88;1.52;;;;;;;25.73;49.28;102105.38;5029510;28;20489;-34
2023/08/22 03:33:42;;;;;;;2.80;1.38;;;;;;;25.72;49.39;102100.94;5026564;28;20050;-34
2023/08/22 03:36:08;;;;;;;2.47;1.50;;;;;;;25.72;49.16;102109.09;5031411;28;20046;-34
2023/08/22 03:38:35;;;;;;;3.15;1.70;;;;;;;25.72;49.29;102102.81;5032397;28;20133;-34
2023/08/22 03:41:02;;;;;;;3.45;1.90;;;;;;;25.71;49.50;102095.69;5033337;28;20088;-34
2023/08/22 03:43:29;;;;;;;2.67;1.67;;;;;;;25.71;49.18;102106.56;5032957;28;20084;-34
2023/08/22 03:45:55;;;;;;;2.47;1.48;;;;;;;25.71;49.40;102098.41;5029814;28;20133;-34
2023/08/22 03:48:22;;;;;;;2.75;1.73;;;;;;;25.70;49.39;102102.16;5032646;28;20053;-34
2023/08/22 03:50:49;;;;;;;2.58;1.75;;;;;;;25.69;49.39;102100.44;5030738;28;20049;-34
2023/08/22 03:53:15;;;;;;;3.33;1.70;;;;;;;25.69;49.40;102103.16;5033106;28;20396;-34
2023/08/22 03:55:43;;;;;;;2.40;1.67;;;;;;;25.67;49.34;102092.47;5033270;28;20081;-34
2023/08/22 03:58:10;;;;;;;3.20;1.65;;;;;;;25.68;49.13;102090.59;5032995;28;20095;-34
2023/08/22 04:00:38;;;;;;;3.30;1.65;;;;;;;25.67;49.63;102083.50;5030248;28;20092;-34
2023/08/22 04:03:05;;;;;;;2.75;1.50;;;;;;;25.67;49.30;102075.34;5027375;28;20107;-34
2023/08/22 04:05:31;;;;;;;7.97;3.40;;;;;;;25.67;49.60;102075.34;5029871;28;20080;-34
2023/08/22 04:07:58;;;;;;;11.00;3.88;;;;;;;25.68;49.65;102083.31;5028324;28;20081;-34
2023/08/22 04:10:25;;;;;;;9.88;4.25;;;;;;;25.68;49.69;102075.16;5031901;28;20103;-34
2023/08/22 04:12:51;;;;;;;9.07;4.57;;;;;;;25.68;49.71;102082.47;5025495;28;20053;-34
2023/08/22 04:15:19;;;;;;;18.00;9.30;;;;;;;25.69;49.80;102086.84;5029461;28;20045;-34
2023/08/22 04:17:45;;;;;;;19.30;11.27;;;;;;;25.69;49.60;102082.31;5031013;28;20140;-34
2023/08/22 04:20:16;;;;;;;23.63;13.70;;;;;;;25.68;49.71;102086.00;5029292;28;20479;-34
2023/08/22 04:22:42;;;;;;;24.83;14.88;;;;;;;25.67;49.50;102086.19;5030948;28;20045;-34
2023/08/22 04:25:10;;;;;;;21.75;13.80;;;;;;;25.65;49.34;102094.53;5029587;28;20441;-34
2023/08/22 04:27:38;;;;;;;23.70;12.63;;;;;;;25.63;49.26;102093.00;5029004;28;20055;-34
2023/08/22 04:30:06;;;;;;;14.43;10.18;;;;;;;25.60;49.42;102096.91;5031300;28;20128;-34
2023/08/22 04:32:32;;;;;;;18.50;10.73;;;;;;;25.57;49.08;102098.13;5027137;28;20080;-34
2023/08/22 04:34:59;;;;;;;15.88;8.82;;;;;;;25.57;49.26;102108.13;5030356;28;20045;-34
2023/08/22 04:37:26;;;;;;;13.73;8.30;;;;;;;25.55;49.24;102105.56;5029081;28;20053;-34
2023/08/22 04:39:53;;;;;;;10.38;6.55;;;;;;;25.54;49.10;102108.47;5029636;28;20434;-34
2023/08/22 04:42:19;;;;;;;10.23;6.25;;;;;;;25.50;48.97;102109.84;5030659;28;20057;-34
2023/08/22 04:44:46;;;;;;;9.15;5.40;;;;;;;25.49;48.96;102121.72;5031788;28;20121;-34
2023/08/22 04:47:13;;;;;;;8.77;5.18;;;;;;;25.45;48.88;102114.91;5029363;28;20388;-34
2023/08/22 04:49:39;;;;;;;7.88;4.93;;;;;;;25.42;48.79;102120.72;5028113;28;20049;-34
2023/08/22 04:52:06;;;;;;;7.68;4.60;;;;;;;25.40;49.21;102118.16;5030966;28;20056;-34
2023/08/22 04:54:32;;;;;;;8.18;4.10;;;;;;;25.37;49.04;102113.09;5036225;28;20140;-34
2023/08/22 04:56:59;;;;;;;8.65;4.38;;;;;;;25.34;49.22;102110.72;5035757;28;20400;-34
2023/08/22 04:59:26;;;;;;;8.00;4.80;;;;;;;25.32;48.88;102124.44;5035691;28;20045;-34
2023/08/22 05:01:53;;;;;;;7.53;4.25;;;;;;;25.31;49.06;102119.19;5033608;28;20429;-34
2023/08/22 05:04:19;;;;;;;11.68;4.72;;;;;;;25.29;49.00;102118.53;5032252;28;20048;-34
2023/08/22 05:06:46;;;;;;;6.30;3.92;;;;;;;25.28;48.94;102124.94;5030190;28;20061;-34
2023/08/22 05:09:14;;;;;;;9.57;4.13;;;;;;;25.26;48.76;102113.44;5034191;28;20164;-34
2023/08/22 05:11:40;;;;;;;8.65;3.95;;;;;;;25.25;48.77;102109.88;5034135;28;20085;-34
2023/08/22 05:14:08;;;;;;;6.97;3.35;;;;;;;25.24;48.83;102099.16;5033309;28;20069;-34
2023/08/22 05:16:35;;;;;;;6.18;3.85;;;;;;;25.25;49.14;102101.72;5034784;28;20131;-33
2023/08/22 05:19:02;;;;;;;8.38;3.80;;;;;;;25.25;48.70;102106.31;5031351;28;20077;-34
2023/08/22 05:21:29;;;;;;;8.45;3.80;;;;;;;25.25;49.01;102109.03;5033230;28;20103;-34
2023/08/22 05:23:55;;;;;;;8.57;4.80;;;;;;;25.23;48.75;102111.06;5035567;28;20350;-34
2023/08/22 05:26:22;;;;;;;8.10;4.05;;;;;;;25.23;49.25;102108.34;5035988;28;20057;-34
2023/08/22 05:28:48;;;;;;;9.15;4.50;;;;;;;25.20;49.40;102105.97;5029920;28;20098;-34
2023/08/22 05:31:22;;;;;;;9.73;4.30;;;;;;;25.21;49.08;102110.38;5032245;28;20054;-34
2023/08/22 05:33:49;;;;;;;;;;;;;;;25.17;49.29;102107.16;5034190;28;20495;-34
2023/08/22 05:36:15;;;;;;;9.52;5.15;;;;;;;25.22;49.13;102101.22;5031356;28;19971;-34
2023/08/22 05:38:42;;;;;;;12.00;5.65;;;;;;;25.21;48.96;102102.25;5031738;28;20400;-34
2023/08/22 05:41:09;;;;;;;9.63;3.97;;;;;;;25.20;49.26;102100.53;5026300;28;20049;-34
2023/08/22 05:43:36;;;;;;;11.35;3.97;;;;;;;25.21;49.19;102104.97;5033443;28;20114;-34
2023/08/22 05:46:02;;;;;;;8.80;5.00;;;;;;;25.21;49.41;102107.69;5033498;28;20045;-34
2023/08/22 05:48:30;;;;;;;6.32;4.20;;;;;;;25.21;49.67;102102.25;5032149;28;20447;-34
2023/08/22 05:50:56;;;;;;;9.90;3.80;;;;;;;25.23;49.35;102097.47;5031736;28;20076;-34
2023/08/22 05:53:23;;;;;;;9.13;4.18;;;;;;;25.25;49.48;102107.16;5032067;28;20049;-34
2023/08/22 05:55:51;;;;;;;7.60;3.85;;;;;;;25.25;49.45;102103.59;5035437;28;20084;-34
2023/08/22 05:58:17;;;;;;;9.88;3.72;;;;;;;25.25;49.99;102109.03;5033814;28;20049;-34
2023/08/22 06:00:44;;;;;;;8.82;3.97;;;;;;;25.27;49.89;102109.69;5032462;28;20124;-34
2023/08/22 06:03:11;;;;;;;9.48;3.88;;;;;;;25.28;49.54;102112.22;5032109;28;20131;-34
2023/08/22 06:05:37;;;;;;;13.20;5.15;;;;;;;25.32;49.82;102107.31;5031523;28;20107;-34
2023/08/22 06:08:04;;;;;;;11.13;4.22;;;;;;;25.35;49.90;102106.97;5031867;28;20091;-34
2023/08/22 06:10:31;;;;;;;15.18;5.68;;;;;;;25.37;50.31;102113.09;5033021;28;20050;-34
2023/08/22 06:12:57;;;;;;;13.20;5.07;;;;;;;25.35;50.53;102104.25;5031052;28;21436;-34
2023/08/22 06:15:24;;;;;;;16.38;5.57;;;;;;;25.34;50.05;102108.84;5031759;28;20049;-34
2023/08/22 06:17:51;;;;;;;21.15;7.57;;;;;;;25.34;50.43;102113.41;5033776;28;20065;-34
2023/08/22 06:20:17;;;;;;;17.45;8.77;;;;;;;25.33;50.11;102114.44;5033810;28;20085;-34
2023/08/22 06:22:44;;;;;;;18.55;7.35;;;;;;;25.31;50.18;102111.03;5032370;28;20103;-34
2023/08/22 06:25:10;;;;;;;15.45;7.97;;;;;;;25.31;50.24;102119.19;5032634;28;20049;-34
2023/08/22 06:27:37;;;;;;;13.10;6.70;;;;;;;25.31;50.52;102119.19;5029382;28;20322;-34
2023/08/22 06:30:05;;;;;;;12.05;5.45;;;;;;;25.31;50.17;102121.91;5034166;28;20588;-34
2023/08/22 06:32:31;;;;;;;14.52;5.32;;;;;;;25.31;50.11;102122.75;5030405;28;20049;-34
2023/08/22 06:35:03;;;;;;;12.93;5.78;;;;;;;25.33;50.67;102122.59;5032531;28;20161;-34
2023/08/22 06:37:30;;;;;;;8.52;4.03;;;;;;;25.32;50.48;102126.31;5032097;28;20444;-34
2023/08/22 06:39:57;;;;;;;9.57;3.95;;;;;;;25.32;50.61;102127.16;5028565;28;20138;-34
2023/08/22 06:42:23;;;;;;;16.45;8.05;;;;;;;25.35;50.49;102131.41;5026196;28;20049;-34
2023/08/22 06:44:50;;;;;;;16.13;8.15;;;;;;;25.34;50.31;102125.13;5029723;28;20472;-34
2023/08/22 06:47:17;;;;;;;16.75;7.57;;;;;;;25.33;50.20;102112.59;5031139;28;20053;-34
2023/08/22 06:49:43;;;;;;;13.02;6.63;;;;;;;25.32;50.66;102113.56;5027345;28;20073;-34
2023/08/22 06:52:10;;;;;;;26.90;15.88;;;;;;;25.32;50.49;102115.44;5028623;28;20141;-33
2023/08/22 06:54:36;;;;;;;29.55;16.70;;;;;;;25.29;50.73;102116.66;5031201;28;20057;-34
2023/08/22 06:57:03;;;;;;;29.15;17.35;;;;;;;25.29;50.91;102122.09;5032097;28;20136;-34
2023/08/22 06:59:30;;;;;;;28.77;19.33;;;;;;;25.29;51.21;102121.25;5031827;28;20428;-34
2023/08/22 07:01:56;;;;;;;28.25;18.70;;;;;;;25.29;50.65;102121.25;5030655;28;20438;-33
2023/08/22 07:04:23;;;;;;;19.83;11.45;;;;;;;25.29;50.59;102121.25;5032567;28;20095;-34
2023/08/22 07:06:50;;;;;;;31.02;19.27;;;;;;;25.29;50.96;102123.94;5032439;28;20464;-34
2023/08/22 07:09:16;;;;;;;31.38;19.75;;;;;;;25.28;50.90;102130.38;5031667;28;20041;-34
2023/08/22 07:11:43;;;;;;;26.38;16.25;;;;;;;25.28;50.89;102135.81;5032941;28;20187;-34
2023/08/22 07:14:10;;;;;;;25.85;17.85;;;;;;;25.29;50.73;102134.81;5031398;28;20140;-34
2023/08/22 07:16:36;;;;;;;25.52;16.15;;;;;;;25.29;51.00;102137.53;5030709;28;20103;-34
2023/08/22 07:19:03;;;;;;;23.90;16.00;;;;;;;25.29;50.95;102137.53;5031715;28;20059;-34
2023/08/22 07:21:29;;;;;;;16.92;9.32;;;;;;;25.28;50.91;102143.94;5030308;28;20119;-34
2023/08/22 07:23:56;;;;;;;22.73;15.13;;;;;;;25.28;51.45;102146.66;5033306;28;20049;-34
2023/08/22 07:26:23;;;;;;;27.88;18.30;;;;;;;25.28;51.26;102149.38;5029639;28;20056;-34
2023/08/22 07:28:50;;;;;;;26.48;16.10;;;;;;;25.28;51.23;102149.38;5030051;28;20061;-33
2023/08/22 07:31:16;;;;;;;19.48;12.60;;;;;;;25.27;51.45;102151.25;5031351;28;20073;-34
2023/08/22 07:33:43;;;;;;;19.63;12.77;;;;;;;25.28;51.70;102146.66;5032581;28;20068;-34
2023/08/22 07:36:20;;;;;;;22.88;15.55;;;;;;;25.26;51.43;102154.97;5031213;28;20131;-34
2023/08/22 07:38:47;;;;;;;25.70;13.63;;;;;;;25.26;51.68;102154.13;5029571;28;20049;-34
2023/08/22 07:41:13;;;;;;;30.95;11.35;;;;;;;25.26;51.50;102162.28;5032728;28;20052;-34
2023/08/22 07:43:40;;;;;;;20.02;11.02;;;;;;;25.26;51.63;102162.28;5031414;28;20065;-34
2023/08/22 07:46:07;;;;;;;19.30;12.10;;;;;;;25.27;51.75;102182.97;5031941;28;20045;-34
2023/08/22 07:48:34;;;;;;;19.80;10.45;;;;;;;25.25;51.49;102180.44;5028282;28;20350;-34
2023/08/22 07:51:00;;;;;;;18.15;10.00;;;;;;;25.24;51.36;102169.72;5031660;28;20049;-33
2023/08/22 07:53:27;;;;;;;21.67;14.02;;;;;;;25.25;51.51;102166.88;5030348;28;20050;-34
2023/08/22 07:55:53;;;;;;;13.27;8.57;;;;;;;25.27;51.91;102166.69;5029718;28;20045;-34
2023/08/22 07:58:20;;;;;;;18.92;12.02;;;;;;;25.27;52.06;102178.38;5031534;28;20088;-34
2023/08/22 08:00:47;;;;;;;17.70;12.13;;;;;;;25.27;51.64;102175.66;5030769;28;20049;-33
2023/08/22 08:03:14;;;;;;;23.80;13.73;;;;;;;25.28;51.85;102169.22;5030645;28;20395;-34
2023/08/22 08:05:41;;;;;;;13.70;6.05;;;;;;;25.28;51.78;102173.78;5030260;28;20060;-34
2023/08/22 08:08:07;;;;;;;11.55;5.40;;;;;;;25.29;51.55;102184.50;5032054;28;20132;-34
2023/08/22 08:10:36;;;;;;;10.50;4.80;;;;;;;25.31;51.65;102170.75;5029141;28;20053;-34
2023/08/22 08:13:02;;;;;;;8.77;4.32;;;;;;;25.32;51.69;102173.28;5032265;28;20101;-34
2023/08/22 08:15:29;;;;;;;7.38;4.00;;;;;;;25.32;51.38;102175.16;5031480;28;20121;-34
2023/08/22 08:17:58;;;;;;;10.45;4.15;;;;;;;25.34;51.23;102176.69;5030973;28;20049;-34
2023/08/22 08:20:25;;;;;;;10.57;4.03;;;;;;;25.34;51.50;102173.13;5029244;28;20119;-34
2023/08/22 08:22:52;;;;;;;7.72;4.13;;;;;;;25.34;51.37;102173.13;5030797;28;20060;-33
2023/08/22 08:25:18;;;;;;;10.13;3.83;;;;;;;25.33;51.74;102175.00;5032468;28;20501;-33
2023/08/22 08:27:45;;;;;;;9.32;3.60;;;;;;;25.35;51.54;102169.41;5033025;28;20049;-34
2023/08/22 08:30:16;;;;;;;7.22;3.70;;;;;;;25.36;51.65;102161.06;5032392;28;20554;-34
2023/08/22 08:32:42;;;;;;;10.93;4.10;;;;;;;25.35;51.66;102170.25;5031059;28;20053;-34
2023/08/22 08:35:10;;;;;;;11.43;4.45;;;;;;;25.36;51.67;102168.38;5031105;28;20056;-34
2023/08/22 08:37:36;;;;;;;9.27;4.00;;;;;;;25.36;51.88;102171.09;5031631;28;20128;-34
2023/08/22 08:40:07;;;;;;;10.75;4.30;;;;;;;25.36;51.60;102157.50;5033311;28;20045;-34
2023/08/22 08:42:37;;;;;;;11.07;4.05;;;;;;;25.35;51.46;102164.81;5032828;28;20053;-33
2023/08/22 08:45:05;;;;;;;13.07;4.20;;;;;;;25.36;51.78;102162.94;5030672;28;20131;-34
2023/08/22 08:47:33;;;;;;;11.23;3.60;;;;;;;25.38;51.97;102171.78;5032206;28;20049;-34
2023/08/22 08:50:01;;;;;;;7.30;3.15;;;;;;;25.40;51.89;102168.88;5032730;28;20325;-33
2023/08/22 08:52:29;;;;;;;7.95;3.90;;;;;;;25.42;51.79;102162.28;5032108;28;20045;-34
2023/08/22 08:54:58;;;;;;;12.27;4.38;;;;;;;25.43;51.86;102155.81;5032213;28;20052;-34
2023/08/22 08:57:26;;;;;;;9.52;3.60;;;;;;;25.44;51.89;102154.78;5032831;28;20048;-34
2023/08/22 08:59:53;;;;;;;9.93;4.10;;;;;;;25.46;51.93;102158.19;5029021;28;20135;-34
2023/08/22 09:02:20;;;;;;;12.30;3.90;;;;;;;25.49;51.74;102165.16;5026409;28;20059;-33
2023/08/22 09:04:46;;;;;;;10.68;4.00;;;;;;;25.51;51.56;102169.38;5032804;28;20080;-34
2023/08/22 09:07:13;;;;;;;7.63;3.53;;;;;;;25.55;51.68;102175.31;5029276;28;20049;-34
2023/08/22 09:09:40;;;;;;;8.43;4.13;;;;;;;25.56;51.12;102172.41;5030898;28;20046;-34
2023/08/22 09:12:09;;;;;;;10.57;4.18;;;;;;;25.57;51.61;102176.84;5031007;28;20057;-33
2023/08/22 09:14:47;;;;;;;8.75;3.90;;;;;;;25.57;51.46;102170.59;5029902;28;20092;-34
2023/08/22 09:17:17;;;;;;;10.02;3.40;;;;;;;25.59;51.35;102171.25;5031035;28;20096;-34
2023/08/22 09:19:44;;;;;;;8.55;3.70;;;;;;;25.59;51.48;102163.94;5031624;28;20448;-34
2023/08/22 09:22:13;;;;;;;8.82;3.63;;;;;;;25.62;51.21;102167.34;5031338;28;20111;-34
2023/08/22 09:24:53;;;;;;;9.38;3.80;;;;;;;25.62;51.23;102170.91;5033190;28;20045;-34
2023/08/22 09:27:28;;;;;;;8.68;3.45;;;;;;;25.64;51.06;102176.16;5032097;28;20055;-34
2023/08/22 09:30:01;;;;;;;10.77;3.88;;;;;;;25.63;51.16;102174.47;5030491;28;20597;-34
2023/08/22 09:32:27;;;;;;;8.35;3.15;;;;;;;25.62;50.92;102181.78;5028262;28;20436;-34
2023/08/22 09:34:56;;;;;;;8.32;2.88;;;;;;;25.64;50.91;102176.16;5032030;28;20136;-34
2023/08/22 09:37:36;;;;;;;6.55;2.80;;;;;;;25.65;50.80;102184.16;5030738;28;20057;-34
2023/08/22 09:40:09;;;;;;;14.00;3.60;;;;;;;25.66;50.61;102179.56;5035900;28;20049;-34
2023/08/22 09:42:40;;;;;;;6.63;3.05;;;;;;;25.68;50.97;102177.50;5034072;28;20053;-33
2023/08/22 09:45:07;;;;;;;10.88;2.90;;;;;;;25.69;50.95;102182.78;5035937;28;20341;-34
2023/08/22 09:47:39;;;;;;;8.38;2.60;;;;;;;25.71;50.54;102185.31;5034937;28;20045;-34
2023/08/22 09:50:07;;;;;;;6.30;2.85;;;;;;;25.71;50.55;102179.88;5036081;28;20136;-34
2023/08/22 09:52:36;;;;;;;6.78;3.70;;;;;;;25.73;50.54;102180.53;5031974;28;20311;-34
2023/08/22 09:55:03;;;;;;;5.95;3.15;;;;;;;25.74;50.60;102195.84;5031217;28;20060;-34
2023/08/22 09:57:31;;;;;;;7.80;3.53;;;;;;;25.75;50.54;102189.38;5035493;28;20053;-34
2023/08/22 09:59:59;;;;;;;8.90;3.78;;;;;;;25.76;50.48;102182.91;5035687;28;20438;-34
2023/08/22 10:02:28;;;;;;;10.60;3.75;;;;;;;25.77;50.41;102184.59;5034201;28;20445;-34
2023/08/22 10:04:54;;;;;;;7.70;3.13;;;;;;;25.79;50.50;102183.47;5033391;28;20049;-34
2023/08/22 10:07:21;;;;;;;9.52;3.58;;;;;;;25.81;50.51;102178.72;5031060;28;20083;-34
2023/08/22 10:09:48;;;;;;;7.88;3.88;;;;;;;25.83;50.33;102184.81;5033598;28;20049;-34
2023/08/22 10:12:17;;;;;;;8.15;4.03;;;;;;;25.85;50.64;102192.81;5032908;28;20054;-35
2023/08/22 10:14:48;;;;;;;9.75;3.75;;;;;;;25.86;50.16;102183.63;5034090;28;20080;-34
2023/08/22 10:17:15;;;;;;;10.55;3.03;;;;;;;25.87;49.84;102190.75;5032779;28;20057;-34
2023/08/22 10:19:42;;;;;;;7.30;2.92;;;;;;;25.87;49.83;102190.75;5035451;28;20465;-34
2023/08/22 10:22:11;;;;;;;10.50;2.50;;;;;;;25.88;49.95;102183.44;5031133;28;20144;-34
2023/08/22 10:24:39;;;;;;;5.57;2.28;;;;;;;25.87;49.69;102177.16;5032264;28;20493;-34
2023/08/22 10:27:09;;;;;;;5.68;2.05;;;;;;;25.87;50.29;102174.44;5032647;28;20850;-34
2023/08/22 10:29:37;;;;;;;12.45;2.95;;;;;;;25.86;50.10;102170.03;5034692;28;20089;-34
2023/08/22 10:32:04;;;;;;;5.15;2.13;;;;;;;25.88;50.12;102175.28;5031740;28;20053;-34
2023/08/22 10:34:33;;;;;;;18.67;4.57;;;;;;;25.88;50.06;102175.28;5034145;28;20042;-34
2023/08/22 10:37:01;;;;;;;12.50;3.75;;;;;;;25.89;50.17;102177.84;5031795;28;20046;-34
2023/08/22 10:39:37;;;;;;;13.30;2.70;;;;;;;25.90;49.99;102174.09;5035337;28;20054;-34
2023/08/22 10:42:29;;;;;;;8.20;2.20;;;;;;;25.93;49.75;102194.63;5028821;28;20172;-34
2023/08/22 10:44:57;;;;;;;4.75;1.90;;;;;;;25.92;49.36;102193.78;5029670;28;20440;-34
2023/08/22 10:47:26;;;;;;;12.82;1.98;;;;;;;25.90;49.01;102179.53;5031474;28;20138;-34
2023/08/22 10:49:58;;;;;;;6.35;1.80;;;;;;;25.88;48.71;102178.84;5030669;28;20099;-34
2023/08/22 10:52:43;;;;;;;8.25;2.00;;;;;;;25.90;48.63;102174.09;5031505;28;20429;-34
2023/08/22 10:55:11;;;;;;;5.57;1.38;;;;;;;25.90;48.75;102173.25;5031209;28;20053;-35
2023/08/22 10:57:40;;;;;;;5.18;1.60;;;;;;;25.91;48.70;102192.09;5032445;28;20045;-34
2023/08/22 11:00:27;;;;;;;5.35;1.33;;;;;;;25.90;48.54;102187.69;5034260;28;20049;-34
2023/08/22 11:02:59;;;;;;;6.32;1.85;;;;;;;25.89;48.38;102179.69;5032646;28;20053;-34
2023/08/22 11:05:29;;;;;;;7.05;1.60;;;;;;;25.90;48.54;102189.56;5031484;28;20053;-34
2023/08/22 11:07:56;;;;;;;6.75;1.42;;;;;;;25.89;48.47;102196.88;5030666;28;20075;-34
2023/08/22 11:10:24;;;;;;;8.50;1.33;;;;;;;25.90;48.33;102182.25;5032721;28;20447;-34
2023/08/22 11:12:54;;;;;;;4.97;1.38;;;;;;;25.93;48.21;102186.47;5033997;28;20350;-34
2023/08/22 11:15:21;;;;;;;5.38;1.88;;;;;;;25.94;48.36;102190.91;5034093;28;20115;-34
2023/08/22 11:17:50;;;;;;;7.90;1.48;;;;;;;25.96;48.21;102188.84;5033133;28;21362;-34
2023/08/22 11:20:23;;;;;;;5.63;1.40;;;;;;;25.97;48.21;102177.84;5032394;28;20048;-34
2023/08/22 11:22:49;;;;;;;4.40;1.33;;;;;;;25.99;47.97;102185.78;5030428;28;20437;-34
2023/08/22 11:25:24;;;;;;;7.82;1.35;;;;;;;26.01;47.97;102190.03;5033563;28;20096;-34